sensor_id;sensor_type;location;lat;lon;timestamp;P1;durP1;ratioP1;P2;durP2;ratioP2
70303;SDS011;57712;48.752;11.348;2023-04-24T00:00:44;6.32;;;2.55;;
70303;SDS011;57712;48.752;11.348;2023-04-24T00:03:11;8.63;;;2.90;;
70303;SDS011;57712;48.752;11.348;2023-04-24T00:05:39;6.22;;;2.10;;
70303;SDS011;57712;48.752;11.348;2023-04-24T00:08:07;5.88;;;2.50;;
70303;SDS011;57712;48.752;11.348;2023-04-24T00:10:34;6.75;;;2.80;;
70303;SDS011;57712;48.752;11.348;2023-04-24T00:13:00;7.57;;;2.83;;
70303;SDS011;57712;48.752;11.348;2023-04-24T00:15:27;7.40;;;2.57;;
70303;SDS011;57712;48.752;11.348;2023-04-24T00:17:54;5.85;;;2.50;;
70303;SDS011;57712;48.752;11.348;2023-04-24T00:20:20;6.30;;;2.50;;
70303;SDS011;57712;48.752;11.348;2023-04-24T00:22:47;5.75;;;2.70;;
70303;SDS011;57712;48.752;11.348;2023-04-24T00:25:13;6.55;;;2.90;;
70303;SDS011;57712;48.752;11.348;2023-04-24T00:27:40;5.80;;;2.30;;
70303;SDS011;57712;48.752;11.348;2023-04-24T00:30:07;6.20;;;2.50;;
70303;SDS011;57712;48.752;11.348;2023-04-24T00:32:34;5.30;;;2.30;;
70303;SDS011;57712;48.752;11.348;2023-04-24T00:35:01;5.25;;;1.73;;
70303;SDS011;57712;48.752;11.348;2023-04-24T00:37:28;6.00;;;2.00;;
70303;SDS011;57712;48.752;11.348;2023-04-24T00:39:54;5.17;;;2.03;;
70303;SDS011;57712;48.752;11.348;2023-04-24T00:42:21;5.32;;;2.25;;
70303;SDS011;57712;48.752;11.348;2023-04-24T00:44:49;6.63;;;2.45;;
70303;SDS011;57712;48.752;11.348;2023-04-24T00:47:15;6.43;;;2.10;;
70303;SDS011;57712;48.752;11.348;2023-04-24T00:49:42;4.95;;;2.20;;
70303;SDS011;57712;48.752;11.348;2023-04-24T00:52:10;4.77;;;1.70;;
70303;SDS011;57712;48.752;11.348;2023-04-24T00:54:36;5.13;;;2.05;;
70303;SDS011;57712;48.752;11.348;2023-04-24T00:57:03;6.07;;;2.53;;
70303;SDS011;57712;48.752;11.348;2023-04-24T00:59:30;4.80;;;2.00;;
70303;SDS011;57712;48.752;11.348;2023-04-24T01:01:57;6.03;;;2.10;;
70303;SDS011;57712;48.752;11.348;2023-04-24T01:04:24;6.40;;;1.87;;
70303;SDS011;57712;48.752;11.348;2023-04-24T01:06:52;5.78;;;1.98;;
70303;SDS011;57712;48.752;11.348;2023-04-24T01:09:21;6.70;;;1.98;;
70303;SDS011;57712;48.752;11.348;2023-04-24T01:11:51;5.80;;;2.38;;
70303;SDS011;57712;48.752;11.348;2023-04-24T01:14:19;5.55;;;2.40;;
70303;SDS011;57712;48.752;11.348;2023-04-24T01:16:46;5.70;;;2.20;;
70303;SDS011;57712;48.752;11.348;2023-04-24T01:19:12;5.03;;;2.10;;
70303;SDS011;57712;48.752;11.348;2023-04-24T01:21:41;6.45;;;2.13;;
70303;SDS011;57712;48.752;11.348;2023-04-24T01:24:09;4.53;;;1.67;;
70303;SDS011;57712;48.752;11.348;2023-04-24T01:26:36;4.63;;;1.60;;
70303;SDS011;57712;48.752;11.348;2023-04-24T01:29:02;4.60;;;1.50;;
70303;SDS011;57712;48.752;11.348;2023-04-24T01:31:29;5.10;;;1.77;;
70303;SDS011;57712;48.752;11.348;2023-04-24T01:33:56;5.60;;;2.00;;
70303;SDS011;57712;48.752;11.348;2023-04-24T01:36:23;5.45;;;1.50;;
70303;SDS011;57712;48.752;11.348;2023-04-24T01:38:52;5.00;;;1.70;;
70303;SDS011;57712;48.752;11.348;2023-04-24T01:41:19;4.70;;;1.90;;
70303;SDS011;57712;48.752;11.348;2023-04-24T01:43:46;4.75;;;1.90;;
70303;SDS011;57712;48.752;11.348;2023-04-24T01:46:14;6.07;;;2.10;;
70303;SDS011;57712;48.752;11.348;2023-04-24T01:48:41;5.03;;;1.63;;
70303;SDS011;57712;48.752;11.348;2023-04-24T01:51:07;5.65;;;1.63;;
70303;SDS011;57712;48.752;11.348;2023-04-24T01:53:34;5.07;;;2.33;;
70303;SDS011;57712;48.752;11.348;2023-04-24T01:56:01;4.65;;;1.88;;
70303;SDS011;57712;48.752;11.348;2023-04-24T01:58:28;4.53;;;1.70;;
70303;SDS011;57712;48.752;11.348;2023-04-24T02:00:56;4.65;;;1.42;;
70303;SDS011;57712;48.752;11.348;2023-04-24T02:03:23;5.00;;;1.63;;
70303;SDS011;57712;48.752;11.348;2023-04-24T02:05:50;4.67;;;1.53;;
70303;SDS011;57712;48.752;11.348;2023-04-24T02:08:16;5.47;;;1.50;;
70303;SDS011;57712;48.752;11.348;2023-04-24T02:10:43;4.93;;;1.42;;
70303;SDS011;57712;48.752;11.348;2023-04-24T02:13:10;4.65;;;1.27;;
70303;SDS011;57712;48.752;11.348;2023-04-24T02:15:37;5.18;;;1.67;;
70303;SDS011;57712;48.752;11.348;2023-04-24T02:18:03;4.30;;;1.43;;
70303;SDS011;57712;48.752;11.348;2023-04-24T02:20:30;4.28;;;1.13;;
70303;SDS011;57712;48.752;11.348;2023-04-24T02:22:56;4.13;;;1.60;;
70303;SDS011;57712;48.752;11.348;2023-04-24T02:25:23;4.30;;;1.50;;
70303;SDS011;57712;48.752;11.348;2023-04-24T02:27:50;4.28;;;1.33;;
70303;SDS011;57712;48.752;11.348;2023-04-24T02:30:16;5.27;;;1.70;;
70303;SDS011;57712;48.752;11.348;2023-04-24T02:32:43;4.43;;;1.40;;
70303;SDS011;57712;48.752;11.348;2023-04-24T02:35:10;4.63;;;1.60;;
70303;SDS011;57712;48.752;11.348;2023-04-24T02:37:36;4.53;;;1.35;;
70303;SDS011;57712;48.752;11.348;2023-04-24T02:40:03;4.47;;;1.80;;
70303;SDS011;57712;48.752;11.348;2023-04-24T02:42:32;4.87;;;1.40;;
70303;SDS011;57712;48.752;11.348;2023-04-24T02:44:58;4.55;;;1.17;;
70303;SDS011;57712;48.752;11.348;2023-04-24T02:47:25;3.80;;;1.42;;
70303;SDS011;57712;48.752;11.348;2023-04-24T02:49:51;4.65;;;1.50;;
70303;SDS011;57712;48.752;11.348;2023-04-24T02:52:18;4.18;;;1.20;;
70303;SDS011;57712;48.752;11.348;2023-04-24T02:54:45;4.70;;;1.40;;
70303;SDS011;57712;48.752;11.348;2023-04-24T02:57:11;5.07;;;1.40;;
70303;SDS011;57712;48.752;11.348;2023-04-24T02:59:38;4.10;;;1.25;;
70303;SDS011;57712;48.752;11.348;2023-04-24T03:02:04;3.53;;;0.98;;
70303;SDS011;57712;48.752;11.348;2023-04-24T03:04:31;4.35;;;1.23;;
70303;SDS011;57712;48.752;11.348;2023-04-24T03:06:58;4.67;;;1.30;;
70303;SDS011;57712;48.752;11.348;2023-04-24T03:09:25;3.97;;;0.82;;
70303;SDS011;57712;48.752;11.348;2023-04-24T03:11:52;5.03;;;1.40;;
70303;SDS011;57712;48.752;11.348;2023-04-24T03:14:18;4.18;;;1.02;;
70303;SDS011;57712;48.752;11.348;2023-04-24T03:16:45;4.50;;;1.38;;
70303;SDS011;57712;48.752;11.348;2023-04-24T03:19:12;4.10;;;0.80;;
70303;SDS011;57712;48.752;11.348;2023-04-24T03:21:39;4.93;;;1.20;;
70303;SDS011;57712;48.752;11.348;2023-04-24T03:24:07;3.80;;;1.20;;
70303;SDS011;57712;48.752;11.348;2023-04-24T03:26:35;3.72;;;1.25;;
70303;SDS011;57712;48.752;11.348;2023-04-24T03:29:01;4.28;;;1.20;;
70303;SDS011;57712;48.752;11.348;2023-04-24T03:31:28;3.87;;;1.20;;
70303;SDS011;57712;48.752;11.348;2023-04-24T03:33:54;5.28;;;1.13;;
70303;SDS011;57712;48.752;11.348;2023-04-24T03:36:21;6.05;;;1.65;;
70303;SDS011;57712;48.752;11.348;2023-04-24T03:38:48;4.20;;;1.90;;
70303;SDS011;57712;48.752;11.348;2023-04-24T03:41:14;4.18;;;1.45;;
70303;SDS011;57712;48.752;11.348;2023-04-24T03:43:41;3.70;;;1.20;;
70303;SDS011;57712;48.752;11.348;2023-04-24T03:46:07;4.63;;;1.20;;
70303;SDS011;57712;48.752;11.348;2023-04-24T03:48:35;5.07;;;1.30;;
70303;SDS011;57712;48.752;11.348;2023-04-24T03:51:02;3.85;;;1.05;;
70303;SDS011;57712;48.752;11.348;2023-04-24T03:53:29;4.28;;;1.20;;
70303;SDS011;57712;48.752;11.348;2023-04-24T03:55:55;4.10;;;1.03;;
70303;SDS011;57712;48.752;11.348;2023-04-24T03:58:22;4.47;;;1.05;;
70303;SDS011;57712;48.752;11.348;2023-04-24T04:00:48;4.65;;;1.15;;
70303;SDS011;57712;48.752;11.348;2023-04-24T04:03:16;7.05;;;1.38;;
70303;SDS011;57712;48.752;11.348;2023-04-24T04:05:42;4.00;;;1.10;;
70303;SDS011;57712;48.752;11.348;2023-04-24T04:08:09;4.10;;;1.23;;
70303;SDS011;57712;48.752;11.348;2023-04-24T04:10:35;5.47;;;1.38;;
70303;SDS011;57712;48.752;11.348;2023-04-24T04:13:02;4.38;;;1.10;;
70303;SDS011;57712;48.752;11.348;2023-04-24T04:15:29;4.13;;;1.25;;
70303;SDS011;57712;48.752;11.348;2023-04-24T04:17:55;4.10;;;1.48;;
70303;SDS011;57712;48.752;11.348;2023-04-24T04:20:22;4.50;;;0.90;;
70303;SDS011;57712;48.752;11.348;2023-04-24T04:22:48;5.40;;;1.00;;
70303;SDS011;57712;48.752;11.348;2023-04-24T04:25:15;4.03;;;1.42;;
70303;SDS011;57712;48.752;11.348;2023-04-24T04:27:42;4.63;;;1.30;;
70303;SDS011;57712;48.752;11.348;2023-04-24T04:30:08;4.43;;;1.20;;
70303;SDS011;57712;48.752;11.348;2023-04-24T04:32:36;5.23;;;1.53;;
70303;SDS011;57712;48.752;11.348;2023-04-24T04:35:03;4.35;;;1.27;;
70303;SDS011;57712;48.752;11.348;2023-04-24T04:37:31;5.15;;;1.33;;
70303;SDS011;57712;48.752;11.348;2023-04-24T04:39:59;4.90;;;1.17;;
70303;SDS011;57712;48.752;11.348;2023-04-24T04:42:26;4.60;;;1.05;;
70303;SDS011;57712;48.752;11.348;2023-04-24T04:44:54;5.13;;;1.00;;
70303;SDS011;57712;48.752;11.348;2023-04-24T04:47:22;3.60;;;1.00;;
70303;SDS011;57712;48.752;11.348;2023-04-24T04:49:49;3.78;;;1.30;;
70303;SDS011;57712;48.752;11.348;2023-04-24T04:52:18;3.90;;;1.23;;
70303;SDS011;57712;48.752;11.348;2023-04-24T04:54:45;5.07;;;1.13;;
70303;SDS011;57712;48.752;11.348;2023-04-24T04:57:12;4.03;;;1.13;;
70303;SDS011;57712;48.752;11.348;2023-04-24T04:59:39;3.85;;;1.00;;
70303;SDS011;57712;48.752;11.348;2023-04-24T05:02:07;4.18;;;1.10;;
70303;SDS011;57712;48.752;11.348;2023-04-24T05:04:34;3.97;;;1.00;;
70303;SDS011;57712;48.752;11.348;2023-04-24T05:07:01;3.80;;;1.10;;
70303;SDS011;57712;48.752;11.348;2023-04-24T05:09:28;3.97;;;1.50;;
70303;SDS011;57712;48.752;11.348;2023-04-24T05:11:55;3.90;;;1.25;;
70303;SDS011;57712;48.752;11.348;2023-04-24T05:14:22;5.68;;;1.50;;
70303;SDS011;57712;48.752;11.348;2023-04-24T05:16:48;4.57;;;1.10;;
70303;SDS011;57712;48.752;11.348;2023-04-24T05:19:15;3.95;;;1.33;;
70303;SDS011;57712;48.752;11.348;2023-04-24T05:21:42;4.70;;;1.33;;
70303;SDS011;57712;48.752;11.348;2023-04-24T05:24:08;4.10;;;1.20;;
70303;SDS011;57712;48.752;11.348;2023-04-24T05:26:35;3.40;;;1.10;;
70303;SDS011;57712;48.752;11.348;2023-04-24T05:29:02;4.32;;;1.00;;
70303;SDS011;57712;48.752;11.348;2023-04-24T05:31:28;4.00;;;1.20;;
70303;SDS011;57712;48.752;11.348;2023-04-24T05:33:55;4.03;;;0.97;;
70303;SDS011;57712;48.752;11.348;2023-04-24T05:36:22;4.15;;;1.35;;
70303;SDS011;57712;48.752;11.348;2023-04-24T05:38:48;4.38;;;0.85;;
70303;SDS011;57712;48.752;11.348;2023-04-24T05:41:15;4.88;;;0.80;;
70303;SDS011;57712;48.752;11.348;2023-04-24T05:43:41;3.60;;;0.90;;
70303;SDS011;57712;48.752;11.348;2023-04-24T05:46:08;4.70;;;1.03;;
70303;SDS011;57712;48.752;11.348;2023-04-24T05:48:35;4.72;;;1.00;;
70303;SDS011;57712;48.752;11.348;2023-04-24T05:51:01;5.05;;;1.38;;
70303;SDS011;57712;48.752;11.348;2023-04-24T05:53:28;4.43;;;1.42;;
70303;SDS011;57712;48.752;11.348;2023-04-24T05:55:54;3.90;;;1.30;;
70303;SDS011;57712;48.752;11.348;2023-04-24T05:58:21;4.93;;;1.40;;
70303;SDS011;57712;48.752;11.348;2023-04-24T06:00:48;5.10;;;1.42;;
70303;SDS011;57712;48.752;11.348;2023-04-24T06:03:16;3.80;;;1.20;;
70303;SDS011;57712;48.752;11.348;2023-04-24T06:05:42;3.85;;;1.10;;
70303;SDS011;57712;48.752;11.348;2023-04-24T06:08:09;5.15;;;1.25;;
70303;SDS011;57712;48.752;11.348;2023-04-24T06:10:36;6.20;;;1.30;;
70303;SDS011;57712;48.752;11.348;2023-04-24T06:13:02;4.70;;;1.13;;
70303;SDS011;57712;48.752;11.348;2023-04-24T06:15:29;4.20;;;1.58;;
70303;SDS011;57712;48.752;11.348;2023-04-24T06:17:57;4.88;;;1.20;;
70303;SDS011;57712;48.752;11.348;2023-04-24T06:20:24;3.85;;;1.17;;
70303;SDS011;57712;48.752;11.348;2023-04-24T06:22:51;4.90;;;1.20;;
70303;SDS011;57712;48.752;11.348;2023-04-24T06:25:17;4.32;;;1.30;;
70303;SDS011;57712;48.752;11.348;2023-04-24T06:27:45;4.30;;;1.00;;
70303;SDS011;57712;48.752;11.348;2023-04-24T06:30:12;4.72;;;1.27;;
70303;SDS011;57712;48.752;11.348;2023-04-24T06:32:39;4.43;;;1.13;;
70303;SDS011;57712;48.752;11.348;2023-04-24T06:35:06;5.07;;;0.83;;
70303;SDS011;57712;48.752;11.348;2023-04-24T06:37:34;4.32;;;0.80;;
70303;SDS011;57712;48.752;11.348;2023-04-24T06:40:00;4.50;;;1.00;;
70303;SDS011;57712;48.752;11.348;2023-04-24T06:42:27;4.20;;;0.90;;
70303;SDS011;57712;48.752;11.348;2023-04-24T06:44:54;4.13;;;1.02;;
70303;SDS011;57712;48.752;11.348;2023-04-24T06:47:20;3.43;;;0.90;;
70303;SDS011;57712;48.752;11.348;2023-04-24T06:49:47;3.70;;;1.00;;
70303;SDS011;57712;48.752;11.348;2023-04-24T06:52:13;3.53;;;1.00;;
70303;SDS011;57712;48.752;11.348;2023-04-24T06:54:41;3.30;;;0.90;;
70303;SDS011;57712;48.752;11.348;2023-04-24T06:57:08;3.03;;;0.63;;
70303;SDS011;57712;48.752;11.348;2023-04-24T06:59:35;3.43;;;0.60;;
70303;SDS011;57712;48.752;11.348;2023-04-24T07:02:01;4.30;;;0.60;;
70303;SDS011;57712;48.752;11.348;2023-04-24T07:04:29;4.10;;;0.75;;
70303;SDS011;57712;48.752;11.348;2023-04-24T07:06:56;3.42;;;0.88;;
70303;SDS011;57712;48.752;11.348;2023-04-24T07:09:24;4.47;;;1.00;;
70303;SDS011;57712;48.752;11.348;2023-04-24T07:11:52;3.53;;;0.67;;
70303;SDS011;57712;48.752;11.348;2023-04-24T07:14:19;3.00;;;0.60;;
70303;SDS011;57712;48.752;11.348;2023-04-24T07:16:46;3.17;;;0.80;;
70303;SDS011;57712;48.752;11.348;2023-04-24T07:19:13;4.18;;;0.73;;
70303;SDS011;57712;48.752;11.348;2023-04-24T07:21:40;3.72;;;0.82;;
70303;SDS011;57712;48.752;11.348;2023-04-24T07:24:07;4.93;;;0.53;;
70303;SDS011;57712;48.752;11.348;2023-04-24T07:26:37;4.28;;;0.50;;
70303;SDS011;57712;48.752;11.348;2023-04-24T07:29:05;3.20;;;0.60;;
70303;SDS011;57712;48.752;11.348;2023-04-24T07:31:32;4.15;;;0.73;;
70303;SDS011;57712;48.752;11.348;2023-04-24T07:33:59;3.42;;;0.63;;
70303;SDS011;57712;48.752;11.348;2023-04-24T07:36:25;3.83;;;0.60;;
70303;SDS011;57712;48.752;11.348;2023-04-24T07:38:53;3.63;;;0.88;;
70303;SDS011;57712;48.752;11.348;2023-04-24T07:41:20;3.33;;;0.68;;
70303;SDS011;57712;48.752;11.348;2023-04-24T07:43:49;4.45;;;0.70;;
70303;SDS011;57712;48.752;11.348;2023-04-24T07:46:16;3.10;;;0.77;;
70303;SDS011;57712;48.752;11.348;2023-04-24T07:48:43;3.70;;;0.67;;
70303;SDS011;57712;48.752;11.348;2023-04-24T07:51:10;3.47;;;0.70;;
70303;SDS011;57712;48.752;11.348;2023-04-24T07:53:38;3.38;;;0.93;;
70303;SDS011;57712;48.752;11.348;2023-04-24T07:56:05;3.38;;;0.75;;
70303;SDS011;57712;48.752;11.348;2023-04-24T07:58:31;4.93;;;1.02;;
70303;SDS011;57712;48.752;11.348;2023-04-24T08:00:58;3.77;;;1.20;;
70303;SDS011;57712;48.752;11.348;2023-04-24T08:03:24;4.00;;;0.90;;
70303;SDS011;57712;48.752;11.348;2023-04-24T08:05:51;4.72;;;1.00;;
70303;SDS011;57712;48.752;11.348;2023-04-24T08:08:21;3.88;;;0.98;;
70303;SDS011;57712;48.752;11.348;2023-04-24T08:10:48;4.63;;;1.52;;
70303;SDS011;57712;48.752;11.348;2023-04-24T08:13:15;4.90;;;1.03;;
70303;SDS011;57712;48.752;11.348;2023-04-24T08:15:42;3.38;;;0.70;;
70303;SDS011;57712;48.752;11.348;2023-04-24T08:18:08;3.17;;;0.70;;
70303;SDS011;57712;48.752;11.348;2023-04-24T08:20:38;3.90;;;0.70;;
70303;SDS011;57712;48.752;11.348;2023-04-24T08:23:05;5.00;;;0.90;;
70303;SDS011;57712;48.752;11.348;2023-04-24T08:25:31;4.50;;;1.20;;
70303;SDS011;57712;48.752;11.348;2023-04-24T08:27:58;3.33;;;0.80;;
70303;SDS011;57712;48.752;11.348;2023-04-24T08:30:25;4.50;;;1.10;;
70303;SDS011;57712;48.752;11.348;2023-04-24T08:32:51;4.30;;;1.00;;
70303;SDS011;57712;48.752;11.348;2023-04-24T08:35:18;3.22;;;0.80;;
70303;SDS011;57712;48.752;11.348;2023-04-24T08:37:45;3.93;;;0.90;;
70303;SDS011;57712;48.752;11.348;2023-04-24T08:40:12;3.72;;;0.75;;
70303;SDS011;57712;48.752;11.348;2023-04-24T08:42:41;3.53;;;0.95;;
70303;SDS011;57712;48.752;11.348;2023-04-24T08:45:10;4.28;;;0.65;;
70303;SDS011;57712;48.752;11.348;2023-04-24T08:47:38;3.80;;;0.95;;
70303;SDS011;57712;48.752;11.348;2023-04-24T08:50:07;4.60;;;0.87;;
70303;SDS011;57712;48.752;11.348;2023-04-24T08:52:35;4.95;;;1.00;;
70303;SDS011;57712;48.752;11.348;2023-04-24T08:55:02;4.22;;;1.08;;
70303;SDS011;57712;48.752;11.348;2023-04-24T08:57:29;4.28;;;1.17;;
70303;SDS011;57712;48.752;11.348;2023-04-24T08:59:58;3.67;;;1.20;;
70303;SDS011;57712;48.752;11.348;2023-04-24T09:02:25;3.80;;;0.83;;
70303;SDS011;57712;48.752;11.348;2023-04-24T09:04:52;5.55;;;1.20;;
70303;SDS011;57712;48.752;11.348;2023-04-24T09:07:19;3.90;;;1.20;;
70303;SDS011;57712;48.752;11.348;2023-04-24T09:09:50;5.68;;;1.20;;
70303;SDS011;57712;48.752;11.348;2023-04-24T09:12:18;4.65;;;1.20;;
70303;SDS011;57712;48.752;11.348;2023-04-24T09:14:45;4.93;;;1.20;;
70303;SDS011;57712;48.752;11.348;2023-04-24T09:17:12;5.35;;;1.40;;
70303;SDS011;57712;48.752;11.348;2023-04-24T09:19:39;3.83;;;1.45;;
70303;SDS011;57712;48.752;11.348;2023-04-24T09:22:07;4.60;;;1.30;;
70303;SDS011;57712;48.752;11.348;2023-04-24T09:24:35;5.03;;;2.00;;
70303;SDS011;57712;48.752;11.348;2023-04-24T09:27:02;4.53;;;1.33;;
70303;SDS011;57712;48.752;11.348;2023-04-24T09:29:30;4.10;;;1.42;;
70303;SDS011;57712;48.752;11.348;2023-04-24T09:31:58;7.18;;;1.80;;
70303;SDS011;57712;48.752;11.348;2023-04-24T09:34:26;4.13;;;1.58;;
70303;SDS011;57712;48.752;11.348;2023-04-24T09:36:53;5.07;;;1.92;;
70303;SDS011;57712;48.752;11.348;2023-04-24T09:39:21;4.73;;;1.90;;
70303;SDS011;57712;48.752;11.348;2023-04-24T09:44:25;4.20;;;1.63;;
70303;SDS011;57712;48.752;11.348;2023-04-24T09:46:59;6.75;;;1.80;;
70303;SDS011;57712;48.752;11.348;2023-04-24T09:49:30;4.63;;;1.48;;
70303;SDS011;57712;48.752;11.348;2023-04-24T09:52:09;4.87;;;1.40;;
70303;SDS011;57712;48.752;11.348;2023-04-24T09:54:37;4.80;;;1.50;;
70303;SDS011;57712;48.752;11.348;2023-04-24T09:57:05;4.85;;;1.80;;
70303;SDS011;57712;48.752;11.348;2023-04-24T09:59:34;4.25;;;1.48;;
70303;SDS011;57712;48.752;11.348;2023-04-24T10:02:02;4.40;;;1.90;;
70303;SDS011;57712;48.752;11.348;2023-04-24T10:04:29;6.33;;;1.70;;
70303;SDS011;57712;48.752;11.348;2023-04-24T10:06:56;5.43;;;1.60;;
70303;SDS011;57712;48.752;11.348;2023-04-24T10:09:24;5.35;;;1.48;;
70303;SDS011;57712;48.752;11.348;2023-04-24T10:11:52;3.60;;;1.40;;
70303;SDS011;57712;48.752;11.348;2023-04-24T10:14:22;3.33;;;0.93;;
70303;SDS011;57712;48.752;11.348;2023-04-24T10:16:52;3.93;;;1.43;;
70303;SDS011;57712;48.752;11.348;2023-04-24T10:19:20;4.80;;;1.75;;
70303;SDS011;57712;48.752;11.348;2023-04-24T10:21:47;4.35;;;1.65;;
70303;SDS011;57712;48.752;11.348;2023-04-24T10:24:14;4.03;;;1.05;;
70303;SDS011;57712;48.752;11.348;2023-04-24T10:26:42;5.05;;;1.35;;
70303;SDS011;57712;48.752;11.348;2023-04-24T10:29:11;3.77;;;0.90;;
70303;SDS011;57712;48.752;11.348;2023-04-24T10:31:39;3.65;;;0.70;;
70303;SDS011;57712;48.752;11.348;2023-04-24T10:34:06;3.17;;;0.90;;
70303;SDS011;57712;48.752;11.348;2023-04-24T10:36:33;2.67;;;0.60;;
70303;SDS011;57712;48.752;11.348;2023-04-24T10:39:02;3.28;;;1.00;;
70303;SDS011;57712;48.752;11.348;2023-04-24T10:41:30;2.80;;;0.77;;
70303;SDS011;57712;48.752;11.348;2023-04-24T10:46:36;3.40;;;0.63;;
70303;SDS011;57712;48.752;11.348;2023-04-24T10:49:05;3.28;;;0.85;;
70303;SDS011;57712;48.752;11.348;2023-04-24T10:54:49;4.10;;;1.00;;
70303;SDS011;57712;48.752;11.348;2023-04-24T10:59:45;3.03;;;0.88;;
70303;SDS011;57712;48.752;11.348;2023-04-24T11:02:15;2.90;;;0.57;;
70303;SDS011;57712;48.752;11.348;2023-04-24T11:04:45;3.65;;;1.17;;
70303;SDS011;57712;48.752;11.348;2023-04-24T11:07:12;5.17;;;0.93;;
70303;SDS011;57712;48.752;11.348;2023-04-24T11:09:39;3.60;;;1.15;;
70303;SDS011;57712;48.752;11.348;2023-04-24T11:12:10;3.30;;;1.05;;
70303;SDS011;57712;48.752;11.348;2023-04-24T11:17:30;4.70;;;1.10;;
70303;SDS011;57712;48.752;11.348;2023-04-24T11:20:02;4.70;;;1.30;;
70303;SDS011;57712;48.752;11.348;2023-04-24T11:22:52;3.70;;;0.98;;
70303;SDS011;57712;48.752;11.348;2023-04-24T11:25:24;3.45;;;1.23;;
70303;SDS011;57712;48.752;11.348;2023-04-24T11:27:52;5.43;;;2.00;;
70303;SDS011;57712;48.752;11.348;2023-04-24T11:30:31;5.35;;;1.70;;
70303;SDS011;57712;48.752;11.348;2023-04-24T11:33:03;6.20;;;1.63;;
70303;SDS011;57712;48.752;11.348;2023-04-24T11:35:34;6.97;;;1.65;;
70303;SDS011;57712;48.752;11.348;2023-04-24T11:38:05;4.78;;;1.60;;
70303;SDS011;57712;48.752;11.348;2023-04-24T11:40:49;4.15;;;1.10;;
70303;SDS011;57712;48.752;11.348;2023-04-24T11:43:16;4.45;;;1.05;;
70303;SDS011;57712;48.752;11.348;2023-04-24T11:45:47;4.23;;;0.80;;
70303;SDS011;57712;48.752;11.348;2023-04-24T11:48:18;3.20;;;0.88;;
70303;SDS011;57712;48.752;11.348;2023-04-24T11:50:48;4.68;;;1.30;;
70303;SDS011;57712;48.752;11.348;2023-04-24T11:53:18;4.55;;;1.08;;
70303;SDS011;57712;48.752;11.348;2023-04-24T11:55:46;3.60;;;0.85;;
70303;SDS011;57712;48.752;11.348;2023-04-24T11:58:13;3.20;;;0.70;;
70303;SDS011;57712;48.752;11.348;2023-04-24T12:00:39;4.07;;;0.77;;
70303;SDS011;57712;48.752;11.348;2023-04-24T12:03:07;3.80;;;1.20;;
70303;SDS011;57712;48.752;11.348;2023-04-24T12:05:35;3.70;;;1.30;;
70303;SDS011;57712;48.752;11.348;2023-04-24T12:08:02;5.97;;;1.58;;
70303;SDS011;57712;48.752;11.348;2023-04-24T12:10:30;4.50;;;1.40;;
70303;SDS011;57712;48.752;11.348;2023-04-24T12:12:58;5.15;;;1.40;;
70303;SDS011;57712;48.752;11.348;2023-04-24T12:15:26;3.63;;;1.38;;
70303;SDS011;57712;48.752;11.348;2023-04-24T12:17:56;5.63;;;1.40;;
70303;SDS011;57712;48.752;11.348;2023-04-24T12:20:27;5.25;;;1.50;;
70303;SDS011;57712;48.752;11.348;2023-04-24T12:22:59;3.93;;;1.10;;
70303;SDS011;57712;48.752;11.348;2023-04-24T12:25:27;3.70;;;1.33;;
70303;SDS011;57712;48.752;11.348;2023-04-24T12:28:08;4.78;;;1.42;;
70303;SDS011;57712;48.752;11.348;2023-04-24T12:30:41;5.60;;;1.25;;
70303;SDS011;57712;48.752;11.348;2023-04-24T12:33:11;3.65;;;1.35;;
70303;SDS011;57712;48.752;11.348;2023-04-24T12:35:39;4.67;;;1.60;;
70303;SDS011;57712;48.752;11.348;2023-04-24T12:38:10;4.85;;;0.80;;
70303;SDS011;57712;48.752;11.348;2023-04-24T12:40:39;3.78;;;1.25;;
70303;SDS011;57712;48.752;11.348;2023-04-24T12:43:17;3.95;;;1.35;;
70303;SDS011;57712;48.752;11.348;2023-04-24T12:45:48;4.63;;;0.98;;
70303;SDS011;57712;48.752;11.348;2023-04-24T12:48:14;3.80;;;0.70;;
70303;SDS011;57712;48.752;11.348;2023-04-24T12:50:41;3.95;;;0.90;;
70303;SDS011;57712;48.752;11.348;2023-04-24T12:53:12;4.70;;;1.02;;
70303;SDS011;57712;48.752;11.348;2023-04-24T12:55:38;3.70;;;1.05;;
70303;SDS011;57712;48.752;11.348;2023-04-24T12:58:05;5.00;;;1.35;;
70303;SDS011;57712;48.752;11.348;2023-04-24T13:00:32;4.43;;;1.07;;
70303;SDS011;57712;48.752;11.348;2023-04-24T13:02:59;5.82;;;1.88;;
70303;SDS011;57712;48.752;11.348;2023-04-24T13:05:26;4.80;;;1.33;;
70303;SDS011;57712;48.752;11.348;2023-04-24T13:07:52;4.10;;;1.20;;
70303;SDS011;57712;48.752;11.348;2023-04-24T13:10:21;4.45;;;1.40;;
70303;SDS011;57712;48.752;11.348;2023-04-24T13:12:48;4.03;;;1.10;;
70303;SDS011;57712;48.752;11.348;2023-04-24T13:15:15;3.63;;;1.13;;
70303;SDS011;57712;48.752;11.348;2023-04-24T13:17:41;4.47;;;1.50;;
70303;SDS011;57712;48.752;11.348;2023-04-24T13:20:08;4.20;;;1.13;;
70303;SDS011;57712;48.752;11.348;2023-04-24T13:22:35;3.78;;;1.05;;
70303;SDS011;57712;48.752;11.348;2023-04-24T13:25:02;3.93;;;1.07;;
70303;SDS011;57712;48.752;11.348;2023-04-24T13:27:29;3.42;;;0.95;;
70303;SDS011;57712;48.752;11.348;2023-04-24T13:29:55;3.53;;;1.10;;
70303;SDS011;57712;48.752;11.348;2023-04-24T13:32:22;3.60;;;0.90;;
70303;SDS011;57712;48.752;11.348;2023-04-24T13:34:48;3.80;;;1.10;;
70303;SDS011;57712;48.752;11.348;2023-04-24T13:37:15;5.10;;;1.57;;
70303;SDS011;57712;48.752;11.348;2023-04-24T13:39:42;3.67;;;0.80;;
70303;SDS011;57712;48.752;11.348;2023-04-24T13:42:08;2.95;;;0.90;;
70303;SDS011;57712;48.752;11.348;2023-04-24T13:44:35;6.68;;;1.50;;
70303;SDS011;57712;48.752;11.348;2023-04-24T13:47:01;4.03;;;1.20;;
70303;SDS011;57712;48.752;11.348;2023-04-24T13:49:28;4.53;;;1.17;;
70303;SDS011;57712;48.752;11.348;2023-04-24T13:51:56;3.30;;;1.05;;
70303;SDS011;57712;48.752;11.348;2023-04-24T13:54:22;4.45;;;1.88;;
70303;SDS011;57712;48.752;11.348;2023-04-24T13:56:52;4.20;;;1.30;;
70303;SDS011;57712;48.752;11.348;2023-04-24T13:59:19;4.10;;;1.35;;
70303;SDS011;57712;48.752;11.348;2023-04-24T14:01:47;4.27;;;1.30;;
70303;SDS011;57712;48.752;11.348;2023-04-24T14:04:14;5.50;;;1.52;;
70303;SDS011;57712;48.752;11.348;2023-04-24T14:06:42;5.00;;;1.00;;
70303;SDS011;57712;48.752;11.348;2023-04-24T14:09:10;3.80;;;1.02;;
70303;SDS011;57712;48.752;11.348;2023-04-24T14:11:37;5.18;;;1.40;;
70303;SDS011;57712;48.752;11.348;2023-04-24T14:14:04;3.87;;;1.03;;
70303;SDS011;57712;48.752;11.348;2023-04-24T14:16:31;4.15;;;1.27;;
70303;SDS011;57712;48.752;11.348;2023-04-24T14:18:57;3.85;;;1.40;;
70303;SDS011;57712;48.752;11.348;2023-04-24T14:21:24;4.88;;;1.08;;
70303;SDS011;57712;48.752;11.348;2023-04-24T14:23:50;3.25;;;0.90;;
70303;SDS011;57712;48.752;11.348;2023-04-24T14:26:17;3.13;;;1.00;;
70303;SDS011;57712;48.752;11.348;2023-04-24T14:28:44;3.92;;;0.98;;
70303;SDS011;57712;48.752;11.348;2023-04-24T14:31:10;4.63;;;1.10;;
70303;SDS011;57712;48.752;11.348;2023-04-24T14:33:37;3.28;;;0.90;;
70303;SDS011;57712;48.752;11.348;2023-04-24T14:36:04;4.93;;;1.55;;
70303;SDS011;57712;48.752;11.348;2023-04-24T14:38:31;3.63;;;1.17;;
70303;SDS011;57712;48.752;11.348;2023-04-24T14:40:58;4.07;;;1.17;;
70303;SDS011;57712;48.752;11.348;2023-04-24T14:43:33;3.78;;;1.13;;
70303;SDS011;57712;48.752;11.348;2023-04-24T14:46:02;3.60;;;1.10;;
70303;SDS011;57712;48.752;11.348;2023-04-24T14:48:29;3.58;;;0.70;;